Time;durP1;ratioP1;P1;durP2;ratioP2;P2;SDS_P1;SDS_P2;PMS_P1;PMS_P2;Temp;Humidity;BMP_temperature;BMP_pressure;BME280_temperature;BME280_humidity;BME280_pressure;Samples;Min_cycle;Max_cycle;Signal;HPM_P1;HPM_P2
2021/12/06 00:00:57;;;;;;;32.45;19.77;;;;;;;;;;4994860;28;20050;-74
2021/12/06 00:03:26;;;;;;;35.20;20.60;;;;;;;;;;4995709;28;20053;-73
2021/12/06 00:05:52;;;;;;;35.95;20.42;;;;;;;;;;4994869;28;20046;-73
2021/12/06 00:08:18;;;;;;;32.42;20.42;;;2.70;99.90;;;;;;4994903;28;20054;-73
2021/12/06 00:10:49;;;;;;;37.47;21.33;;;3.00;99.90;;;;;;4995894;28;20504;-73
2021/12/06 00:13:15;;;;;;;36.03;20.52;;;;;;;;;;4994703;28;20061;-75
2021/12/06 00:15:43;;;;;;;37.47;21.27;;;;;;;;;;4994564;28;20398;-74
2021/12/06 00:18:09;;;;;;;38.53;21.42;;;;;;;;;;4995461;28;20046;-73
2021/12/06 00:20:35;;;;;;;37.15;21.35;;;;;;;;;;4994569;28;20498;-74
2021/12/06 00:23:01;;;;;;;37.05;21.90;;;;;;;;;;4994702;28;20471;-74
2021/12/06 00:25:29;;;;;;;40.58;22.83;;;;;;;;;;4994373;28;20078;-73
2021/12/06 00:27:55;;;;;;;38.33;22.25;;;;;;;;;;4993943;28;20533;-72
2021/12/06 00:30:21;;;;;;;40.95;22.88;;;;;;;;;;4994511;28;20068;-74
2021/12/06 00:32:47;;;;;;;38.90;22.42;;;;;;;;;;4995320;28;20068;-73
2021/12/06 00:35:19;;;;;;;40.08;22.67;;;;;;;;;;4994213;28;20415;-73
2021/12/06 00:37:55;;;;;;;41.95;23.17;;;;;;;;;;4995433;28;20388;-76
2021/12/06 00:40:22;;;;;;;41.08;24.35;;;;;;;;;;4978063;28;20050;-74
2021/12/06 00:42:48;;;;;;;38.80;22.55;;;;;;;;;;4995291;28;20104;-73
2021/12/06 00:45:14;;;;;;;40.80;22.55;;;;;;;;;;4978023;28;20129;-73
2021/12/06 00:47:40;;;;;;;41.72;22.98;;;;;;;;;;4993921;28;20117;-73
2021/12/06 00:50:07;;;;;;;43.45;23.67;;;;;;;;;;4978001;28;20085;-76
2021/12/06 00:52:33;;;;;;;;;;;;;;;;;;4994387;28;20092;-78
2021/12/06 00:54:59;;;;;;;41.47;22.67;;;;;;;;;;4977627;28;19968;-73
2021/12/06 00:57:25;;;;;;;42.78;22.60;;;;;;;;;;4977559;28;20544;-74
2021/12/06 00:59:51;;;;;;;40.90;22.98;;;;;;;;;;4994003;28;20046;-76
2021/12/06 01:02:18;;;;;;;46.33;25.33;;;;;;;;;;4977554;28;20108;-75
2021/12/06 01:04:44;;;;;;;;;;;2.80;99.90;;;;;;4994194;28;20108;-75
2021/12/06 01:07:11;;;;;;;46.80;24.13;;;;;;;;;;4993803;28;20031;-73
2021/12/06 01:09:37;;;;;;;;;;;;;;;;;;4994748;28;20054;-73
2021/12/06 01:12:03;;;;;;;45.03;22.70;;;;;;;;;;4993740;28;19926;-74
2021/12/06 01:14:29;;;;;;;;;;;2.70;99.90;;;;;;4993827;28;20049;-74
2021/12/06 01:16:55;;;;;;;52.95;26.63;;;;;;;;;;4994383;28;20007;-75
2021/12/06 01:19:27;;;;;;;44.15;24.60;;;;;;;;;;4977586;28;20050;-76
2021/12/06 01:22:12;;;;;;;45.80;25.38;;;;;;;;;;4993598;28;20058;-72
2021/12/06 01:24:44;;;;;;;44.00;24.60;;;;;;;;;;4993538;28;20062;-73
2021/12/06 01:27:40;;;;;;;46.63;24.10;;;;;;;;;;4992880;28;20519;-74
2021/12/06 01:33:36;;;;;;;46.50;24.25;;;;;;;;;;4937333;29;20086;-73
2021/12/06 01:41:34;;;;;;;44.95;24.70;;;;;;;;;;4993219;28;20077;-73
2021/12/06 01:44:06;;;;;;;42.20;23.15;;;;;;;;;;4993878;28;20050;-73
2021/12/06 01:46:33;;;;;;;46.22;24.08;;;;;;;;;;4993086;28;20046;-74
2021/12/06 01:48:59;;;;;;;42.70;24.60;;;;;;;;;;4994068;28;20046;-71
2021/12/06 01:51:26;;;;;;;47.80;26.02;;;;;;;;;;4993001;28;20099;-74
2021/12/06 01:53:52;;;;;;;55.05;25.95;;;;;;;;;;4992761;28;20050;-73
2021/12/06 01:56:18;;;;;;;47.58;25.42;;;;;;;;;;4992663;28;20116;-73
2021/12/06 01:58:44;;;;;;;49.10;27.20;;;;;;;;;;4992631;28;20614;-73
2021/12/06 02:01:10;;;;;;;47.58;25.05;;;;;;;;;;4992844;28;20054;-74
2021/12/06 02:03:37;;;;;;;51.55;26.10;;;;;;;;;;4993723;28;20054;-74
2021/12/06 02:06:04;;;;;;;50.03;25.48;;;2.40;99.90;;;;;;4992766;28;20089;-73
2021/12/06 02:08:30;;;;;;;45.83;25.42;;;;;;;;;;4993793;28;20053;-73
2021/12/06 02:11:02;;;;;;;48.40;25.27;;;;;;;;;;4992684;28;20057;-73
2021/12/06 02:13:32;;;;;;;49.13;26.17;;;;;;;;;;4992429;28;20073;-74
2021/12/06 02:15:58;;;;;;;51.33;26.85;;;;;;;;;;4992365;28;20192;-73
2021/12/06 02:18:41;;;;;;;49.13;25.98;;;;;;;;;;4992556;28;20153;-73
2021/12/06 02:21:16;;;;;;;54.03;26.73;;;;;;;;;;4991838;28;20129;-74
2021/12/06 02:23:43;;;;;;;51.65;26.13;;;;;;;;;;4992593;28;20196;-74
2021/12/06 02:26:09;;;;;;;51.72;26.85;;;;;;;;;;4993546;28;20050;-75
2021/12/06 02:28:35;;;;;;;52.70;26.70;;;;;;;;;;4992884;28;20066;-74
2021/12/06 02:31:01;;;;;;;53.00;26.70;;;;;;;;;;4992493;28;20133;-74
2021/12/06 02:33:27;;;;;;;;;;;2.30;99.90;;;;;;4992825;28;20054;-74
2021/12/06 02:35:54;;;;;;;49.10;25.80;;;;;;;;;;4993374;28;19933;-73
2021/12/06 02:38:20;;;;;;;51.22;26.27;;;;;;;;;;4992317;28;20068;-74
2021/12/06 02:40:47;;;;;;;51.90;26.77;;;;;;;;;;4975854;28;20141;-73
2021/12/06 02:43:13;;;;;;;49.88;26.02;;;;;;;;;;4976054;28;20149;-72
2021/12/06 02:45:40;;;;;;;49.63;26.90;;;;;;;;;;4993002;28;20583;-74
2021/12/06 02:48:09;;;;;;;55.88;27.65;;;2.60;99.90;;;;;;4992356;28;20057;-73
2021/12/06 02:50:40;;;;;;;54.90;28.13;;;;;;;;;;4993247;28;20096;-74
2021/12/06 02:53:07;;;;;;;50.22;25.75;;;;;;;;;;4992216;28;20047;-74
2021/12/06 02:55:36;;;;;;;;;;;2.70;99.90;;;;;;4992378;28;20056;-74
2021/12/06 02:58:33;;;;;;;55.42;26.58;;;2.70;99.90;;;;;;4991906;28;20282;-73
2021/12/06 03:00:59;;;;;;;55.28;26.50;;;;;;;;;;4991932;28;20051;-73
2021/12/06 03:03:25;;;;;;;58.15;28.70;;;;;;;;;;4992164;28;20100;-74
2021/12/06 03:05:52;;;;;;;53.92;27.58;;;;;;;;;;4975759;28;20042;-74
2021/12/06 03:08:38;;;;;;;57.03;28.23;;;;;;;;;;4991996;28;20051;-74
2021/12/06 03:11:06;;;;;;;57.60;28.63;;;;;;;;;;4975713;28;20082;-73
2021/12/06 03:13:32;;;;;;;60.83;28.15;;;;;;;;;;4993145;28;20497;-74
2021/12/06 03:15:57;;;;;;;58.30;28.35;;;2.50;99.90;;;;;;4991988;28;20129;-73
2021/12/06 03:18:24;;;;;;;57.15;28.45;;;;;;;;;;4993085;28;20133;-74
2021/12/06 03:20:50;;;;;;;58.33;28.88;;;;;;;;;;4992105;28;20125;-73
2021/12/06 03:23:16;;;;;;;62.67;28.92;;;;;;;;;;4993178;28;20050;-72
2021/12/06 03:25:44;;;;;;;60.38;29.23;;;;;;;;;;4992933;28;20078;-73
2021/12/06 03:28:10;;;;;;;62.80;29.98;;;;;;;;;;4991572;28;20069;-73
2021/12/06 03:30:36;;;;;;;61.17;29.27;;;;;;;;;;4992982;28;20046;-73
2021/12/06 03:33:02;;;;;;;63.97;31.42;;;;;;;;;;4993593;28;20050;-73
2021/12/06 03:35:28;;;;;;;61.55;29.63;;;;;;;;;;4996389;28;20046;-73
2021/12/06 03:37:54;;;;;;;63.17;30.58;;;;;;;;;;4996178;28;20097;-74
2021/12/06 03:40:20;;;;;;;62.30;29.13;;;;;;;;;;4995851;28;20623;-73
2021/12/06 03:42:47;;;;;;;65.07;30.38;;;;;;;;;;4996038;28;20066;-71
2021/12/06 03:45:13;;;;;;;;;;;2.80;99.90;;;;;;4996932;28;20054;-73
2021/12/06 03:47:39;;;;;;;60.58;29.25;;;;;;;;;;4979016;28;19929;-73
2021/12/06 03:50:06;;;;;;;62.65;30.15;;;;;;;;;;4994999;28;20082;-73
2021/12/06 03:52:33;;;;;;;64.68;29.80;;;;;;;;;;4979170;28;20061;-74
2021/12/06 03:54:58;;;;;;;;;;;2.60;99.90;;;;;;4995254;28;20078;-74
2021/12/06 03:57:25;;;;;;;67.10;29.42;;;;;;;;;;4995294;28;19957;-73
2021/12/06 03:59:52;;;;;;;63.70;29.10;;;;;;;;;;4996204;28;20520;-74
2021/12/06 04:02:19;;;;;;;68.75;29.98;;;;;;;;;;4994928;28;20089;-73
2021/12/06 04:04:45;;;;;;;66.38;28.30;;;;;;;;;;4996414;28;20078;-72
2021/12/06 04:07:11;;;;;;;66.28;29.52;;;;;;;;;;4995515;28;20061;-73
2021/12/06 04:09:37;;;;;;;64.00;28.08;;;;;;;;;;4979421;28;20046;-72
2021/12/06 04:12:06;;;;;;;63.28;28.38;;;2.90;99.90;;;;;;4995832;28;20110;-74
2021/12/06 04:14:32;;;;;;;59.05;26.38;;;;;;;;;;4996244;28;20046;-73
2021/12/06 04:16:58;;;;;;;60.38;26.73;;;;;;;;;;4979069;28;20038;-73
2021/12/06 04:19:24;;;;;;;61.38;26.80;;;;;;;;;;4994618;28;20133;-73
2021/12/06 04:21:50;;;;;;;66.68;27.33;;;;;;;;;;4995929;28;20353;-74
2021/12/06 04:24:16;;;;;;;70.93;29.63;;;;;;;;;;4995548;28;20050;-73
2021/12/06 04:26:42;;;;;;;;;;;;;;;;;;4995215;28;20044;-74
2021/12/06 04:29:09;;;;;;;65.47;25.92;;;;;;;;;;4994432;28;20293;-75
2021/12/06 04:31:35;;;;;;;;;;;;;;;;;;4994997;28;20054;-74
2021/12/06 04:34:01;;;;;;;67.32;27.45;;;;;;;;;;4995196;28;19921;-73
2021/12/06 04:36:27;;;;;;;66.07;27.52;;;;;;;;;;4994160;28;20092;-72
2021/12/06 04:38:53;;;;;;;;;;;;;;;;;;4994650;28;20127;-76
2021/12/06 04:41:19;;;;;;;69.40;27.52;;;;;;;;;;4994174;28;19922;-75
2021/12/06 04:43:46;;;;;;;62.63;26.30;;;;;;;;;;4994205;28;20513;-74
2021/12/06 04:46:12;;;;;;;63.15;25.77;;;;;;;;;;4994174;28;20053;-73
2021/12/06 04:48:38;;;;;;;70.82;28.45;;;;;;;;;;4994116;28;20148;-75
2021/12/06 04:51:04;;;;;;;68.03;28.60;;;;;;;;;;4994349;28;20148;-76
2021/12/06 04:53:36;;;;;;;72.32;28.98;;;2.30;99.90;;;;;;4994070;28;20054;-73
2021/12/06 04:56:11;;;;;;;68.80;28.42;;;;;;;;;;4995238;28;20046;-75
2021/12/06 04:58:42;;;;;;;65.55;28.98;;;;;;;;;;4995284;28;20050;-73
2021/12/06 05:01:13;;;;;;;73.95;28.42;;;;;;;;;;4994305;28;20052;-73
2021/12/06 05:03:40;;;;;;;76.57;28.98;;;;;;;;;;4994018;28;20046;-73
2021/12/06 05:06:10;;;;;;;78.47;30.27;;;;;;;;;;4996056;28;20479;-73
2021/12/06 05:08:41;;;;;;;75.45;30.17;;;2.80;99.90;;;;;;4995731;28;20085;-72
2021/12/06 05:11:08;;;;;;;78.00;30.98;;;;;;;;;;4996552;28;20133;-73
2021/12/06 05:13:36;;;;;;;71.40;29.30;;;;;;;;;;4996546;28;20058;-76
2021/12/06 05:16:02;;;;;;;70.72;28.42;;;;;;;;;;4994941;28;20042;-73
2021/12/06 05:18:28;;;;;;;71.72;29.13;;;;;;;;;;4993994;28;20057;-74
2021/12/06 05:20:54;;;;;;;73.65;28.60;;;;;;;;;;4994847;28;20487;-74
2021/12/06 05:23:21;;;;;;;80.20;29.27;;;;;;;;;;4993148;28;20133;-73
2021/12/06 05:25:47;;;;;;;79.38;29.15;;;;;;;;;;4993340;28;20148;-74
2021/12/06 05:28:13;;;;;;;83.65;30.65;;;;;;;;;;4976985;28;20149;-74
2021/12/06 05:30:42;;;;;;;69.40;29.77;;;;;;;;;;4993246;28;20487;-76
2021/12/06 05:33:10;;;;;;;84.38;30.55;;;;;;;;;;4977260;28;20090;-76
2021/12/06 05:35:36;;;;;;;75.32;30.52;;;;;;;;;;4992591;28;20093;-77
2021/12/06 05:38:02;;;;;;;81.72;30.25;;;;;;;;;;4993392;28;20129;-74
2021/12/06 05:40:33;;;;;;;84.82;29.83;;;;;;;;;;4994248;28;20060;-74
2021/12/06 05:43:00;;;;;;;81.90;29.60;;;;;;;;;;4993378;28;20046;-75
2021/12/06 05:45:27;;;;;;;92.13;30.08;;;;;;;;;;4977104;28;20610;-74
2021/12/06 05:47:53;;;;;;;87.65;31.55;;;;;;;;;;4993980;28;20494;-74
2021/12/06 05:50:22;;;;;;;96.20;31.77;;;2.90;99.90;;;;;;4992936;28;20456;-73
2021/12/06 05:52:49;;;;;;;92.82;32.22;;;;;;;;;;4994149;28;20042;-74
2021/12/06 05:55:15;;;;;;;;;;;;;;;;;;4993241;28;20050;-73
2021/12/06 05:57:42;;;;;;;85.63;28.75;;;;;;;;;;4993016;28;20282;-74
2021/12/06 06:00:10;;;;;;;85.45;30.67;;;;;;;;;;4993007;28;20121;-73
2021/12/06 06:02:36;;;;;;;88.60;29.45;;;;;;;;;;4992754;28;20046;-74
2021/12/06 06:05:02;;;;;;;88.05;30.23;;;;;;;;;;4992685;28;20054;-74
2021/12/06 06:07:28;;;;;;;94.25;30.23;;;;;;;;;;4992820;28;20085;-73
2021/12/06 06:09:55;;;;;;;92.95;31.08;;;;;;;;;;4992771;28;20104;-76
2021/12/06 06:12:21;;;;;;;96.38;31.25;;;;;;;;;;4993835;28;20060;-74
2021/12/06 06:14:47;;;;;;;97.88;33.03;;;;;;;;;;4996836;28;20089;-77
2021/12/06 06:17:15;;;;;;;90.97;30.25;;;;;;;;;;4996553;28;20058;-73
2021/12/06 06:19:47;;;;;;;97.50;30.75;;;;;;;;;;4978818;28;20061;-75
2021/12/06 06:22:13;;;;;;;97.53;30.50;;;;;;;;;;4994995;28;20490;-74
2021/12/06 06:24:40;;;;;;;93.28;30.15;;;;;;;;;;4994100;28;20169;-74
2021/12/06 06:27:06;;;;;;;;;;;2.30;99.90;;;;;;4993529;28;20050;-73
2021/12/06 06:29:32;;;;;;;103.28;31.27;;;;;;;;;;4992139;28;19975;-75
2021/12/06 06:31:59;;;;;;;89.68;29.08;;;;;;;;;;4992490;28;20065;-76
2021/12/06 06:34:25;;;;;;;92.07;29.10;;;;;;;;;;4993070;28;20137;-76
2021/12/06 06:36:51;;;;;;;95.75;31.15;;;;;;;;;;4992449;28;20046;-74
2021/12/06 06:39:21;;;;;;;101.65;32.95;;;;;;;;;;4976274;28;20163;-74
2021/12/06 06:41:49;;;;;;;108.35;32.78;;;2.70;99.90;;;;;;4993550;28;20073;-73
2021/12/06 06:44:15;;;;;;;102.38;31.17;;;;;;;;;;4992375;28;20160;-76
2021/12/06 06:46:42;;;;;;;109.90;33.08;;;;;;;;;;4993375;28;20057;-74
2021/12/06 06:49:08;;;;;;;103.47;31.88;;;;;;;;;;4991964;28;20125;-74
2021/12/06 06:51:34;;;;;;;106.32;32.22;;;;;;;;;;4976094;28;20138;-74
2021/12/06 06:54:00;;;;;;;106.93;32.45;;;;;;;;;;4992206;28;20096;-74
2021/12/06 06:56:26;;;;;;;110.45;33.85;;;2.30;99.90;;;;;;4991669;28;20053;-74
2021/12/06 06:58:52;;;;;;;107.35;31.67;;;;;;;;;;4992228;28;20046;-74
2021/12/06 07:01:19;;;;;;;99.78;30.38;;;;;;;;;;4992955;28;20487;-75
2021/12/06 07:03:45;;;;;;;94.45;30.77;;;;;;;;;;4992953;28;20047;-74
2021/12/06 07:06:11;;;;;;;98.03;31.88;;;;;;;;;;4993262;28;20553;-73
2021/12/06 07:08:37;;;;;;;95.68;32.35;;;;;;;;;;4995089;28;20050;-73
2021/12/06 07:11:05;;;;;;;96.05;29.80;;;;;;;;;;4997137;28;20104;-74
2021/12/06 07:13:36;;;;;;;97.63;31.50;;;;;;;;;;4995960;28;20390;-74
2021/12/06 07:16:03;;;;;;;101.38;31.67;;;;;;;;;;4995653;28;20050;-73
2021/12/06 07:18:29;;;;;;;95.20;32.10;;;;;;;;;;4996394;28;20514;-74
2021/12/06 07:20:55;;;;;;;95.07;30.58;;;;;;;;;;4996633;28;20833;-72
2021/12/06 07:23:21;;;;;;;95.78;31.52;;;;;;;;;;4995437;28;20054;-74
2021/12/06 07:25:47;;;;;;;102.15;31.85;;;;;;;;;;4995659;28;20051;-73
2021/12/06 07:28:13;;;;;;;91.90;29.65;;;;;;;;;;4995346;28;20141;-75
2021/12/06 07:30:39;;;;;;;98.40;31.50;;;;;;;;;;4995069;28;20121;-74
2021/12/06 07:33:06;;;;;;;101.35;31.02;;;;;;;;;;4996396;28;20050;-75
2021/12/06 07:35:32;;;;;;;110.22;32.78;;;;;;;;;;4995408;28;20046;-74
2021/12/06 07:37:59;;;;;;;;;;;2.60;99.90;;;;;;4996732;28;20046;-73
2021/12/06 07:40:25;;;;;;;103.75;32.05;;;;;;;;;;4979019;28;20378;-74
2021/12/06 07:42:52;;;;;;;101.80;32.08;;;;;;;;;;4995209;28;20478;-74
2021/12/06 07:45:18;;;;;;;95.43;31.05;;;2.50;99.90;;;;;;4994961;28;20506;-73
2021/12/06 07:47:45;;;;;;;88.95;29.75;;;;;;;;;;4996143;28;20056;-74
2021/12/06 07:50:11;;;;;;;;;;;;;;;;;;4996481;28;20511;-74
2021/12/06 07:52:37;;;;;;;93.10;32.20;;;;;;;;;;4995128;28;20004;-74
2021/12/06 07:55:04;;;;;;;96.88;32.20;;;;;;;;;;4996252;28;20093;-73
2021/12/06 07:57:32;;;;;;;96.28;31.80;;;;;;;;;;4972255;28;20153;-72
2021/12/06 07:59:58;;;;;;;96.78;31.85;;;;;;;;;;4987931;28;20042;-75
2021/12/06 08:02:24;;;;;;;109.65;35.03;;;;;;;;;;4993583;28;20577;-74
2021/12/06 08:05:00;;;;;;;127.13;32.83;;;;;;;;;;4992962;28;20506;-73
2021/12/06 08:07:26;;;;;;;108.53;36.30;;;;;;;;;;4979187;28;20108;-75
2021/12/06 08:09:53;;;;;;;115.55;35.80;;;;;;;;;;4994448;28;20104;-75
2021/12/06 08:12:19;;;;;;;111.45;33.17;;;;;;;;;;4992351;28;20046;-73
2021/12/06 08:14:45;;;;;;;118.93;33.65;;;;;;;;;;4991759;28;20054;-73
2021/12/06 08:17:14;;;;;;;115.60;32.80;;;;;;;;;;4994255;28;20057;-74
2021/12/06 08:19:40;;;;;;;99.85;31.17;;;;;;;;;;4986527;28;20058;-77
2021/12/06 08:22:06;;;;;;;93.35;30.58;;;;;;;;;;4993303;28;20141;-73
2021/12/06 08:24:33;;;;;;;89.05;30.75;;;;;;;;;;4993606;28;20050;-75
2021/12/06 08:26:59;;;;;;;92.45;30.02;;;;;;;;;;4978059;28;20391;-76
2021/12/06 08:29:27;;;;;;;95.78;31.90;;;;;;;;;;4993412;28;20558;-75
2021/12/06 08:31:53;;;;;;;98.57;30.52;;;;;;;;;;5026521;28;20089;-72
2021/12/06 08:34:19;;;;;;;95.43;30.42;;;;;;;;;;4995448;28;20054;-72
2021/12/06 08:36:45;;;;;;;97.15;29.95;;;;;;;;;;4986501;28;20470;-74
2021/12/06 08:39:11;;;;;;;96.45;31.00;;;;;;;;;;4988172;28;20819;-74
2021/12/06 08:41:37;;;;;;;107.75;30.17;;;2.60;99.90;;;;;;4993502;28;20344;-73
2021/12/06 08:44:03;;;;;;;98.85;30.60;;;;;;;;;;4994009;28;20058;-73
2021/12/06 08:46:31;;;;;;;96.78;31.17;;;;;;;;;;4978069;28;20477;-73
2021/12/06 08:48:58;;;;;;;102.13;31.58;;;2.70;99.90;;;;;;4994323;28;20383;-74
2021/12/06 08:51:24;;;;;;;106.22;32.03;;;;;;;;;;4994012;28;20107;-73
2021/12/06 08:53:51;;;;;;;94.43;29.60;;;;;;;;;;4977708;28;20061;-73
2021/12/06 08:56:18;;;;;;;107.68;32.65;;;;;;;;;;4994727;28;20503;-73
2021/12/06 08:58:44;;;;;;;95.75;33.03;;;;;;;;;;4993761;28;20444;-74
2021/12/06 09:01:10;;;;;;;96.55;30.38;;;;;;;;;;4993660;28;20057;-72
2021/12/06 09:03:36;;;;;;;;;;;;;;;;;;4995451;28;20047;-73
2021/12/06 09:06:04;;;;;;;96.50;29.85;;;;;;;;;;5010090;28;19926;-73
2021/12/06 09:08:31;;;;;;;93.95;31.20;;;;;;;;;;4994854;28;20104;-74
2021/12/06 09:10:58;;;;;;;95.90;30.17;;;;;;;;;;4961667;28;20054;-73
2021/12/06 09:13:25;;;;;;;;;;;2.70;99.90;;;;;;4993946;28;20056;-73
2021/12/06 09:15:52;;;;;;;93.53;30.40;;;;;;;;;;4994701;28;19937;-72
2021/12/06 09:18:19;;;;;;;103.30;30.45;;;;;;;;;;4993676;28;20344;-73
2021/12/06 09:20:46;;;;;;;92.72;31.88;;;;;;;;;;4993324;28;20042;-73
2021/12/06 09:23:13;;;;;;;100.93;31.40;;;;;;;;;;4993634;28;20137;-74
2021/12/06 09:25:39;;;;;;;;;;;2.90;99.90;;;;;;4993992;28;20463;-73
2021/12/06 09:28:05;;;;;;;93.32;30.45;;;;;;;;;;4992860;28;19928;-73
2021/12/06 09:30:33;;;;;;;106.93;32.80;;;;;;;;;;4992827;28;20129;-73
2021/12/06 09:33:00;;;;;;;97.60;31.38;;;;;;;;;;4994398;28;20085;-74
2021/12/06 09:35:28;;;;;;;101.65;30.98;;;;;;;;;;4993267;28;20078;-71
2021/12/06 09:37:55;;;;;;;99.22;31.73;;;;;;;;;;4983212;28;20466;-69
2021/12/06 09:40:22;;;;;;;88.80;29.20;;;2.80;99.90;;;;;;4989366;28;20051;-72
2021/12/06 09:42:49;;;;;;;93.13;29.05;;;;;;;;;;5008899;28;20050;-71
2021/12/06 09:45:17;;;;;;;102.18;30.40;;;;;;;;;;4994157;28;20042;-70
2021/12/06 09:47:49;;;;;;;92.53;31.42;;;;;;;;;;4993864;28;20207;-69
2021/12/06 09:50:16;;;;;;;93.88;30.02;;;;;;;;;;4994049;28;20054;-70
2021/12/06 09:52:42;;;;;;;82.38;28.70;;;;;;;;;;5025268;28;20054;-72
2021/12/06 09:55:09;;;;;;;90.25;28.02;;;;;;;;;;4993918;28;20391;-70
2021/12/06 09:57:35;;;;;;;84.43;27.45;;;;;;;;;;4992614;28;20079;-70
2021/12/06 10:00:02;;;;;;;;;;;3.20;99.90;;;;;;4992888;28;20050;-71
2021/12/06 10:02:28;;;;;;;88.25;29.42;;;;;;;;;;4993748;28;19925;-69
2021/12/06 10:04:55;;;;;;;89.07;29.98;;;;;;;;;;4992463;28;20058;-76
2021/12/06 10:07:22;;;;;;;86.07;28.40;;;;;;;;;;4976387;28;20058;-72
2021/12/06 10:09:50;;;;;;;76.28;28.45;;;;;;;;;;4993589;28;20052;-77
2021/12/06 10:12:17;;;;;;;78.55;27.85;;;;;;;;;;4993295;28;20502;-73
2021/12/06 10:14:46;;;;;;;77.40;27.95;;;;;;;;;;4993401;28;20054;-76
2021/12/06 10:17:15;;;;;;;76.28;27.90;;;;;;;;;;4993619;28;20089;-69
2021/12/06 10:19:41;;;;;;;76.95;27.40;;;;;;;;;;4993576;28;20120;-70
2021/12/06 10:22:08;;;;;;;75.82;27.55;;;;;;;;;;4993149;28;20586;-72
2021/12/06 10:24:35;;;;;;;76.13;26.58;;;;;;;;;;4992441;28;20055;-71
2021/12/06 10:27:11;;;;;;;74.25;27.35;;;;;;;;;;4993130;28;20775;-71
2021/12/06 10:29:40;;;;;;;75.13;27.48;;;;;;;;;;4993620;28;20066;-71
2021/12/06 10:32:11;;;;;;;65.68;26.25;;;;;;;;;;4993267;28;20050;-72
2021/12/06 10:34:37;;;;;;;71.03;24.67;;;;;;;;;;4992351;28;20130;-70
2021/12/06 10:37:03;;;;;;;61.05;24.33;;;;;;;;;;4993136;28;20109;-70
2021/12/06 10:39:35;;;;;;;56.20;23.25;;;;;;;;;;4993324;28;20050;-71
2021/12/06 10:42:02;;;;;;;62.97;23.40;;;;;;;;;;4975102;28;20046;-70
2021/12/06 10:44:28;;;;;;;66.85;24.90;;;;;;;;;;4993183;28;20100;-70
2021/12/06 10:46:54;;;;;;;54.92;22.73;;;;;;;;;;4993116;28;20046;-71
2021/12/06 10:49:21;;;;;;;58.60;23.85;;;;;;;;;;4993308;28;20073;-70
2021/12/06 10:51:48;;;;;;;54.85;24.73;;;3.60;99.90;;;;;;4993082;28;20529;-70
2021/12/06 10:54:27;;;;;;;59.40;24.75;;;3.60;99.90;;;;;;4993167;28;20053;-70
2021/12/06 10:56:55;;;;;;;59.33;22.65;;;;;;;;;;4993051;28;20051;-72
2021/12/06 10:59:23;;;;;;;62.75;23.65;;;;;;;;;;4976402;28;20132;-73
2021/12/06 11:01:53;;;;;;;61.45;24.15;;;3.70;99.90;;;;;;4993105;28;20056;-72
2021/12/06 11:04:24;;;;;;;58.30;23.98;;;3.60;99.90;;;;;;4987698;28;20054;-72
2021/12/06 11:06:51;;;;;;;58.78;25.25;;;;;;;;;;4975305;28;20057;-72
2021/12/06 11:09:22;;;;;;;61.88;25.77;;;3.40;99.90;;;;;;4991263;28;20065;-78
2021/12/06 11:11:50;;;;;;;59.80;24.90;;;;;;;;;;4990242;28;20053;-76
2021/12/06 11:14:27;;;;;;;58.80;24.30;;;;;;;;;;4991995;28;20521;-71
2021/12/06 11:16:58;;;;;;;58.80;23.60;;;;;;;;;;4991224;28;20094;-72
2021/12/06 11:19:26;;;;;;;55.25;24.98;;;;;;;;;;4991996;28;20086;-72
2021/12/06 11:21:54;;;;;;;57.83;24.75;;;;;;;;;;4990252;28;20061;-74
2021/12/06 11:24:30;;;;;;;55.72;24.40;;;;;;;;;;4991942;28;20050;-71
2021/12/06 11:27:05;;;;;;;57.95;24.85;;;3.30;99.90;;;;;;4988406;28;20152;-72
2021/12/06 11:29:38;;;;;;;57.08;26.15;;;3.40;99.90;;;;;;4990296;28;20069;-74
2021/12/06 11:32:09;;;;;;;60.47;27.00;;;;;;;;;;4991647;28;20137;-72
2021/12/06 11:34:37;;;;;;;56.72;25.00;;;;;;;;;;4991659;28;20082;-72
2021/12/06 11:37:10;;;;;;;63.65;28.45;;;;;;;;;;4991279;28;20069;-75
2021/12/06 11:39:36;;;;;;;72.35;29.17;;;;;;;;;;4992758;28;20081;-72
2021/12/06 11:42:02;;;;;;;73.05;30.88;;;;;;;;;;4975879;28;20046;-72
2021/12/06 11:44:30;;;;;;;72.82;31.45;;;;;;;;;;4992988;28;20133;-71
2021/12/06 11:47:01;;;;;;;77.90;30.80;;;;;;;;;;4992576;28;20565;-71
2021/12/06 11:49:30;;;;;;;81.43;33.25;;;;;;;;;;4975191;28;20491;-70
2021/12/06 11:51:57;;;;;;;79.90;31.10;;;;;;;;;;4991364;28;20499;-72
2021/12/06 11:54:23;;;;;;;87.25;33.03;;;;;;;;;;4994524;28;20146;-69
2021/12/06 11:56:51;;;;;;;84.63;33.05;;;;;;;;;;4995996;28;20134;-73
2021/12/06 11:59:18;;;;;;;78.82;32.17;;;3.60;99.90;;;;;;4994813;28;20053;-72
2021/12/06 12:01:46;;;;;;;75.03;30.80;;;;;;;;;;4995954;28;20398;-70
2021/12/06 12:04:16;;;;;;;61.55;27.40;;;3.50;99.90;;;;;;4995858;28;20047;-69
2021/12/06 12:06:44;;;;;;;63.95;25.60;;;;;;;;;;4978598;28;20479;-71
2021/12/06 12:09:12;;;;;;;54.80;24.08;;;;;;;;;;4995603;28;20050;-70
2021/12/06 12:11:57;;;;;;;59.35;25.27;;;;;;;;;;4995861;28;20104;-71
2021/12/06 12:14:29;;;;;;;58.15;25.80;;;3.70;99.90;;;;;;4994687;28;20058;-69
2021/12/06 12:16:55;;;;;;;60.55;25.75;;;;;;;;;;4994355;28;20490;-70
2021/12/06 12:19:22;;;;;;;60.58;26.45;;;;;;;;;;4995678;28;20133;-70
2021/12/06 12:21:48;;;;;;;55.22;24.23;;;;;;;;;;4994150;28;20050;-71
2021/12/06 12:24:14;;;;;;;53.60;24.70;;;;;;;;;;4995576;28;20053;-70
2021/12/06 12:26:54;;;;;;;59.80;25.52;;;;;;;;;;4994427;28;20042;-70
2021/12/06 12:29:26;;;;;;;62.08;24.05;;;;;;;;;;4995365;28;20069;-70
2021/12/06 12:31:57;;;;;;;53.85;23.63;;;3.20;99.90;;;;;;4994233;28;20054;-69
2021/12/06 12:34:25;;;;;;;54.95;25.20;;;;;;;;;;4995494;28;20097;-69
2021/12/06 12:36:51;;;;;;;56.00;25.35;;;;;;;;;;4977515;28;20057;-69
2021/12/06 12:39:18;;;;;;;58.63;25.05;;;3.60;99.90;;;;;;4995319;28;20046;-73
2021/12/06 12:41:50;;;;;;;60.17;27.88;;;3.70;99.90;;;;;;4994176;28;20046;-71
2021/12/06 12:44:16;;;;;;;69.55;30.15;;;;;;;;;;4995272;28;20046;-72
2021/12/06 12:46:45;;;;;;;71.10;29.83;;;;;;;;;;4995170;28;20417;-71
2021/12/06 12:49:21;;;;;;;72.93;30.95;;;3.60;99.90;;;;;;4995137;28;20057;-70
2021/12/06 12:51:49;;;;;;;70.22;29.80;;;;;;;;;;4994889;28;20455;-72
2021/12/06 12:54:29;;;;;;;70.70;29.65;;;;;;;;;;4994009;28;20050;-76
2021/12/06 12:57:04;;;;;;;68.47;29.45;;;;;;;;;;4993636;28;20553;-71
2021/12/06 12:59:35;;;;;;;78.50;30.58;;;;;;;;;;4994939;28;20150;-72
2021/12/06 13:02:11;;;;;;;74.03;29.70;;;;;;;;;;4993402;28;20047;-74
2021/12/06 13:04:56;;;;;;;69.70;28.58;;;;;;;;;;5013947;28;20050;-79
2021/12/06 13:07:22;;;;;;;67.90;28.63;;;;;;;;;;5012566;28;20379;-76
2021/12/06 13:09:48;;;;;;;68.93;28.50;;;;;;;;;;5013428;28;20081;-75
2021/12/06 13:12:16;;;;;;;72.40;27.35;;;;;;;;;;4997107;28;20053;-75
2021/12/06 13:14:48;;;;;;;76.32;29.15;;;;;;;;;;4997340;28;20050;-75
2021/12/06 13:17:23;;;;;;;71.95;28.15;;;;;;;;;;5014393;28;20057;-75
2021/12/06 13:20:06;;;;;;;68.72;27.95;;;;;;;;;;5013100;28;20046;-74
2021/12/06 13:22:32;;;;;;;76.32;28.55;;;;;;;;;;5013317;28;20049;-75
2021/12/06 13:25:06;;;;;;;81.13;29.60;;;;;;;;;;5013282;28;20057;-75
2021/12/06 13:27:36;;;;;;;81.15;31.20;;;;;;;;;;5013141;28;20061;-77
2021/12/06 13:30:08;;;;;;;84.55;31.27;;;;;;;;;;5013164;28;20058;-75
2021/12/06 13:32:46;;;;;;;83.07;30.58;;;3.50;99.90;;;;;;5013207;28;20054;-74
2021/12/06 13:35:14;;;;;;;80.03;29.40;;;;;;;;;;5013771;28;20120;-74
2021/12/06 13:37:41;;;;;;;86.20;29.75;;;;;;;;;;5012989;28;20108;-75
2021/12/06 13:40:14;;;;;;;86.22;29.38;;;;;;;;;;4996646;28;20056;-75
2021/12/06 13:42:43;;;;;;;73.47;28.65;;;3.40;99.90;;;;;;4996509;28;20449;-76
2021/12/06 13:45:19;;;;;;;83.78;29.67;;;;;;;;;;5013845;28;20054;-76
2021/12/06 13:48:11;;;;;;;89.17;30.37;;;3.40;99.90;;;;;;5012605;28;20827;-79
2021/12/06 13:50:40;;;;;;;81.15;31.77;;;;;;;;;;5012344;28;20056;-78
2021/12/06 13:53:22;;;;;;;84.95;29.55;;;;;;;;;;5012523;28;20050;-78
2021/12/06 13:55:50;;;;;;;82.55;30.65;;;3.50;99.90;;;;;;5012553;28;20057;-76
2021/12/06 13:58:16;;;;;;;78.95;28.15;;;;;;;;;;5012396;28;20050;-75
2021/12/06 14:00:45;;;;;;;;;;;3.50;99.90;;;;;;5012980;28;20474;-75
2021/12/06 14:03:14;;;;;;;83.28;30.27;;;;;;;;;;5012261;28;19921;-77
2021/12/06 14:05:43;;;;;;;78.40;30.48;;;;;;;;;;5012464;28;20095;-74
2021/12/06 14:08:11;;;;;;;81.63;30.88;;;;;;;;;;5012131;28;20046;-73
2021/12/06 14:10:37;;;;;;;79.45;31.75;;;;;;;;;;5013539;28;20060;-74
2021/12/06 14:13:07;;;;;;;81.57;31.13;;;;;;;;;;5012215;28;20054;-75
2021/12/06 14:15:47;;;;;;;81.22;32.15;;;;;;;;;;5012216;28;20045;-74
2021/12/06 14:18:17;;;;;;;82.68;31.25;;;3.40;99.90;;;;;;5011926;28;20402;-75
2021/12/06 14:21:10;;;;;;;78.88;31.13;;;;;;;;;;5012195;28;20141;-74
2021/12/06 14:23:36;;;;;;;86.35;31.75;;;;;;;;;;5009490;28;20058;-75